Cedar Island, NC (28520)

8:22 AM EST on February 10, 2016 (GMT -0500)
Core Sound's 2 West Shore Heel of Rock Jetty | | Change Station
CLOSE
Current Station
Personal Weather Station
Location: Davis, NC
Elevation: 13 ft
Nearby Weather Stations

Elev 13 ft 34.80 °N, 76.46 °W | Updated 1 minute ago

Clear
Clear
31.8 °F
Feels Like 26 °F
N
6.0
Wind Variable Wind from NW
Gusts 6.0 mph

Today
High -- | Low -- °F
--% Chance of Precip.
Yesterday
High -- | Low -- °F
Precip. -- in
Pressure 29.94 in
Visibility 10.0 miles
Clouds Clear
Windchill 26 °F
Dew Point 19 °F
Humidity 59%
Rainfall 0.00 in
Snow Depth Not available.
6:56 AM 5:42 PM
Waxing Crescent, 5% visible
METAR KMRH 101258Z AUTO 28012KT 10SM CLR M01/M08 A2994 RMK AO2 SLP138 T10061083 TSNO
Pressure 29.94 in
Visibility 10.0 miles
Clouds Clear
Windchill 26 °F
Dew Point 19 °F
Humidity 59%
Rainfall 0.00 in
Snow Depth Not available.
6:56 AM 5:42 PM
Waxing Crescent, 5% visible
METAR KMRH 101258Z AUTO 28012KT 10SM CLR M01/M08 A2994 RMK AO2 SLP138 T10061083 TSNO

10-Day Weather Forecast

Almanac

Astronomy

Feb. 10, 2016 Rise Set
Actual Time
Civil Twilight
Nautical Twilight
Astronomical Twilight
Moon
Length of Visible Light
Length of Day
Tomorrow will be .
, % of the Moon is Illuminated

Today's Extremes

State Highs State Lows

Community

WunderPhotos

Upload Photos

1,891,840 photos uploaded!

WunderBlog® & News

Nearby

Air Quality

  Air Quality AQ Index Pollutant
Not available.

Snow Depth

Station Depth Elevation

Earthquake Activity

City Distance Mag. Time & Date
Minimum magnitude displayed is 2.5.

Coastal Water Temperatures

Place Temperature

Stations

Nearby Weather Stations

Station Location Temp. Windchill Dew Point Humidity Wind Precip. Elev Updated Type
                   

Watches & Warnings

There are currently no watches in effect.